createdAt,value
2022-09-21T00:01:12.019Z,87.05
2022-09-21T00:03:15.338Z,85.19
2022-09-21T00:05:17.434Z,85.47
2022-09-21T00:07:19.372Z,85.47
2022-09-21T00:09:21.340Z,85.56
2022-09-21T00:11:28.400Z,85.59
2022-09-21T00:13:30.446Z,85.72
2022-09-21T00:15:32.479Z,85.02
2022-09-21T00:17:34.647Z,84.40
2022-09-21T00:19:36.830Z,84.55
2022-09-21T00:21:39.117Z,84.94
2022-09-21T00:23:41.296Z,84.86
2022-09-21T00:25:43.261Z,86.45
2022-09-21T00:27:47.865Z,86.17
2022-09-21T00:29:49.799Z,85.63
2022-09-21T00:31:51.782Z,85.69
2022-09-21T00:33:53.817Z,85.09
2022-09-21T00:35:55.782Z,85.39
2022-09-21T00:38:02.323Z,86.65
2022-09-21T00:40:04.879Z,85.53
2022-09-21T00:42:25.963Z,87.15
2022-09-21T00:44:34.179Z,85.44
2022-09-21T00:46:36.890Z,86.62
2022-09-21T00:48:39.095Z,87.63
2022-09-21T00:50:48.691Z,86.14
2022-09-21T00:52:54.407Z,86.72
2022-09-21T00:55:25.756Z,87.49
2022-09-21T00:57:28.620Z,84.97
2022-09-21T00:59:35.626Z,85.76
2022-09-21T01:01:38.476Z,85.46
2022-09-21T01:03:40.452Z,84.26
2022-09-21T01:05:42.416Z,85.26
2022-09-21T01:07:47.637Z,86.58
2022-09-21T01:09:52.165Z,86.54
2022-09-21T01:12:23.082Z,86.46
2022-09-21T01:14:38.850Z,86.24
2022-09-21T01:17:10.769Z,86.29
2022-09-21T01:19:45.121Z,87.54
2022-09-21T01:22:01.402Z,86.17
2022-09-21T01:24:31.119Z,86.95
2022-09-21T01:27:04.824Z,87.03
2022-09-21T01:29:18.535Z,86.98
2022-09-21T01:31:27.389Z,85.98
2022-09-21T01:33:33.901Z,86.54
2022-09-21T01:35:45.688Z,86.91
2022-09-21T01:37:59.549Z,86.89
2022-09-21T01:40:05.117Z,86.55
2022-09-21T01:42:07.245Z,85.98
2022-09-21T01:44:18.109Z,86.64
2022-09-21T01:46:21.351Z,86.63
2022-09-21T01:48:24.317Z,85.69
2022-09-21T01:50:26.862Z,87.77
2022-09-21T01:52:47.793Z,87.04
2022-09-21T01:54:54.566Z,86.38
2022-09-21T01:57:06.809Z,87.52
2022-09-21T01:59:25.844Z,87.84
2022-09-21T02:01:28.330Z,86.29
2022-09-21T02:03:43.406Z,88.48
2022-09-21T02:05:45.379Z,87.98
2022-09-21T02:07:47.510Z,88.94
2022-09-21T02:09:49.534Z,87.81
2022-09-21T02:11:51.526Z,87.46
2022-09-21T02:13:54.063Z,87.14
2022-09-21T02:16:07.880Z,88.29
2022-09-21T02:18:30.123Z,88.13
2022-09-21T02:20:40.685Z,88.59
2022-09-21T02:23:25.066Z,88.59
2022-09-21T02:25:59.739Z,89.11
2022-09-21T02:29:01.603Z,89.61
2022-09-21T02:31:21.217Z,87.91
2022-09-21T02:33:34.642Z,89.36
2022-09-21T02:35:48.264Z,89.35
2022-09-21T02:38:11.745Z,89.69
2022-09-21T02:40:25.522Z,89.31
2022-09-21T02:42:33.781Z,88.13
2022-09-21T02:44:40.562Z,88.18
2022-09-21T02:46:53.607Z,88.94
2022-09-21T02:49:03.506Z,89.23
2022-09-21T02:51:15.989Z,88.27
2022-09-21T02:53:23.528Z,88.08
2022-09-21T02:55:25.800Z,88.42
2022-09-21T02:57:27.774Z,87.75
2022-09-21T02:59:29.731Z,90.09
2022-09-21T03:01:32.327Z,88.42
2022-09-21T03:03:34.488Z,88.12
2022-09-21T03:05:36.523Z,88.73
2022-09-21T03:07:38.472Z,88.90
2022-09-21T03:09:40.446Z,90.05
2022-09-21T03:11:43.262Z,89.64
2022-09-21T03:13:45.397Z,88.44
2022-09-21T03:15:47.512Z,89.17
2022-09-21T03:17:49.517Z,89.24
2022-09-21T03:19:51.771Z,89.11
2022-09-21T03:21:54.695Z,89.32
2022-09-21T03:23:56.618Z,88.98
2022-09-21T03:25:58.593Z,88.50
2022-09-21T03:28:01.413Z,88.33
2022-09-21T03:30:03.451Z,90.03
2022-09-21T03:32:05.654Z,89.12
2022-09-21T03:34:07.692Z,88.23
2022-09-21T03:36:10.225Z,88.82
2022-09-21T03:38:12.848Z,88.17
2022-09-21T03:40:15.248Z,89.02
2022-09-21T03:42:17.196Z,88.67
2022-09-21T03:44:20.081Z,88.83
2022-09-21T03:46:22.049Z,88.87
2022-09-21T03:48:24.104Z,89.61
2022-09-21T03:50:28.341Z,89.60
2022-09-21T03:52:30.272Z,89.59
2022-09-21T03:54:32.232Z,89.52
2022-09-21T03:56:34.206Z,90.61
2022-09-21T03:58:36.140Z,88.86
2022-09-21T04:00:39.266Z,90.37
2022-09-21T04:02:41.419Z,88.52
2022-09-21T04:04:43.522Z,89.09
2022-09-21T04:06:46.294Z,88.65
2022-09-21T04:08:48.182Z,90.98
2022-09-21T04:10:50.110Z,90.32
2022-09-21T04:12:53.561Z,90.55
2022-09-21T04:14:55.491Z,90.06
2022-09-21T04:16:57.993Z,89.96
2022-09-21T04:19:00.103Z,90.11
2022-09-21T04:21:02.044Z,89.79
2022-09-21T04:23:04.006Z,90.24
2022-09-21T04:25:06.505Z,90.51
2022-09-21T04:27:11.698Z,90.25
2022-09-21T04:29:14.353Z,90.61
2022-09-21T04:31:16.391Z,89.88
2022-09-21T04:33:18.380Z,90.18
2022-09-21T04:35:20.913Z,89.82
2022-09-21T04:37:22.882Z,89.27
2022-09-21T04:39:25.693Z,88.89
2022-09-21T04:41:27.971Z,91.37
2022-09-21T04:43:29.970Z,90.87
2022-09-21T04:45:32.533Z,91.82
2022-09-21T04:47:34.462Z,90.33
2022-09-21T04:49:36.520Z,90.62
2022-09-21T04:51:39.106Z,90.56
2022-09-21T04:53:42.252Z,90.51
2022-09-21T04:55:46.387Z,90.47
2022-09-21T04:57:48.338Z,90.75
2022-09-21T04:59:50.304Z,90.28
2022-09-21T05:01:52.391Z,89.96
2022-09-21T05:03:54.519Z,90.35
2022-09-21T05:05:57.409Z,90.15
2022-09-21T05:07:59.372Z,90.12
2022-09-21T05:10:04.200Z,89.22
2022-09-21T05:12:06.571Z,89.53
2022-09-21T05:14:08.988Z,89.71
2022-09-21T05:16:11.199Z,90.09
2022-09-21T05:18:13.155Z,89.54
2022-09-21T05:20:15.229Z,89.59
2022-09-21T05:22:17.323Z,90.37
2022-09-21T05:24:19.292Z,90.35
2022-09-21T05:26:21.406Z,89.96
2022-09-21T05:28:23.736Z,89.98
2022-09-21T05:30:26.133Z,89.53
2022-09-21T05:32:45.208Z,89.72
2022-09-21T05:35:11.971Z,89.64
2022-09-21T05:37:43.712Z,89.12
2022-09-21T05:39:46.329Z,88.65
2022-09-21T05:41:48.772Z,88.25
2022-09-21T05:43:51.107Z,88.63
2022-09-21T05:46:05.985Z,88.73
2022-09-21T05:48:24.001Z,88.91
2022-09-21T05:50:55.626Z,88.58
2022-09-21T05:53:36.452Z,88.61
2022-09-21T05:55:57.624Z,88.53
2022-09-21T05:58:20.335Z,88.46
2022-09-21T06:00:23.293Z,87.92
2022-09-21T06:03:16.911Z,88.12
2022-09-21T06:05:20.306Z,86.67
2022-09-21T06:07:22.340Z,86.46
2022-09-21T06:09:25.905Z,86.40
2022-09-21T06:11:27.892Z,86.03
2022-09-21T06:13:29.874Z,86.05
2022-09-21T06:15:31.837Z,86.14
2022-09-21T06:17:33.880Z,85.36
2022-09-21T06:19:35.840Z,85.55
2022-09-21T06:21:37.828Z,85.04
2022-09-21T06:23:39.835Z,85.38
2022-09-21T06:25:41.788Z,85.15
2022-09-21T06:27:43.717Z,85.26
2022-09-21T06:29:45.704Z,84.61
2022-09-21T06:31:47.647Z,84.19
2022-09-21T06:33:49.607Z,84.56
2022-09-21T06:35:56.117Z,84.50
2022-09-21T06:37:59.865Z,84.00
2022-09-21T06:40:02.090Z,83.69
2022-09-21T06:42:04.205Z,83.42
2022-09-21T06:44:06.192Z,83.21
2022-09-21T06:46:08.198Z,83.27
2022-09-21T06:48:10.367Z,82.70
2022-09-21T06:50:12.395Z,82.58
2022-09-21T06:52:14.332Z,81.80
2022-09-21T06:54:17.596Z,81.59
2022-09-21T06:56:19.808Z,81.12
2022-09-21T06:58:21.762Z,80.68
2022-09-21T07:00:23.714Z,80.47
2022-09-21T07:02:25.668Z,79.55
2022-09-21T07:04:29.240Z,79.64
2022-09-21T07:06:31.296Z,79.01
2022-09-21T07:10:59.300Z,76.52
2022-09-21T07:13:04.091Z,76.78
2022-09-21T07:15:07.023Z,74.60
2022-09-21T07:17:09.542Z,74.04
2022-09-21T07:19:12.041Z,73.57
2022-09-21T07:21:14.898Z,73.03
2022-09-21T07:23:19.246Z,71.92
2022-09-21T07:25:21.199Z,71.42
2022-09-21T07:27:23.163Z,72.40
2022-09-21T07:29:25.149Z,70.77
2022-09-21T07:31:27.137Z,71.96
2022-09-21T07:33:31.665Z,72.58
2022-09-21T07:35:37.264Z,70.61
2022-09-21T07:37:39.235Z,71.82
2022-09-21T07:39:41.325Z,69.72
2022-09-21T07:41:43.288Z,71.10
2022-09-21T07:43:45.244Z,70.55
2022-09-21T07:45:57.201Z,69.49
2022-09-21T07:48:05.678Z,68.21
2022-09-21T07:50:07.948Z,69.44
2022-09-21T07:52:11.198Z,68.82
2022-09-21T07:54:13.610Z,69.22
2022-09-21T07:56:16.889Z,68.91
2022-09-21T07:58:37.511Z,66.27
2022-09-21T08:00:39.593Z,67.21
2022-09-21T08:02:46.652Z,66.45
2022-09-21T08:04:49.560Z,65.71
2022-09-21T08:06:51.566Z,64.82
2022-09-21T08:08:57.471Z,65.13
2022-09-21T08:11:05.346Z,63.87
2022-09-21T08:13:07.371Z,66.24
2022-09-21T08:15:30.511Z,64.38
2022-09-21T08:17:32.815Z,65.58
2022-09-21T08:19:36.175Z,65.25
2022-09-21T08:21:38.155Z,63.72
2022-09-21T08:23:42.869Z,63.91
2022-09-21T08:25:45.244Z,64.42
2022-09-21T08:27:48.433Z,63.55
2022-09-21T08:29:50.372Z,63.06
2022-09-21T08:31:53.627Z,61.66
2022-09-21T08:33:57.698Z,60.42
2022-09-21T08:36:00.360Z,60.44
2022-09-21T08:38:02.426Z,59.28
2022-09-21T08:40:06.505Z,61.00
2022-09-21T08:42:08.450Z,61.96
2022-09-21T08:44:45.541Z,59.87
2022-09-21T08:47:02.404Z,60.05
2022-09-21T08:49:14.763Z,60.58
2022-09-21T08:51:22.936Z,60.05
2022-09-21T08:53:38.070Z,60.18
2022-09-21T08:55:40.026Z,60.32
2022-09-21T08:57:41.973Z,62.07
2022-09-21T08:59:47.275Z,61.03
2022-09-21T09:01:54.939Z,60.85
2022-09-21T09:04:33.729Z,59.29
2022-09-21T09:07:14.098Z,59.60
2022-09-21T09:09:34.627Z,59.56
2022-09-21T09:12:11.520Z,60.56
2022-09-21T09:14:31.353Z,60.42
2022-09-21T09:17:03.421Z,61.01
2022-09-21T09:19:22.629Z,62.00
2022-09-21T09:21:38.697Z,60.67
2022-09-21T09:23:54.381Z,60.91
2022-09-21T09:26:19.569Z,60.30
2022-09-21T09:28:58.094Z,60.12
2022-09-21T09:31:25.869Z,60.32
2022-09-21T09:33:40.974Z,59.79
2022-09-21T09:35:51.091Z,59.47
2022-09-21T09:38:06.078Z,58.88
2022-09-21T09:40:08.778Z,60.54
2022-09-21T09:42:48.232Z,58.31
2022-09-21T09:45:26.133Z,58.12
2022-09-21T09:47:57.196Z,57.75
2022-09-21T09:50:08.464Z,58.30
2022-09-21T09:52:12.388Z,58.02
2022-09-21T09:54:16.105Z,57.01
2022-09-21T09:56:18.050Z,56.49
2022-09-21T09:58:23.622Z,53.56
2022-09-21T10:00:25.560Z,53.58
2022-09-21T10:02:29.350Z,55.51
2022-09-21T10:04:31.323Z,53.48
2022-09-21T10:06:33.402Z,55.16
2022-09-21T10:08:39.353Z,53.85
2022-09-21T10:10:41.709Z,56.27
2022-09-21T10:12:46.578Z,55.64
2022-09-21T10:14:50.520Z,57.55
2022-09-21T10:16:52.544Z,60.60
2022-09-21T10:19:01.465Z,61.22
2022-09-21T10:21:09.083Z,62.82
2022-09-21T10:23:11.011Z,63.87
2022-09-21T10:25:19.519Z,63.05
2022-09-21T10:27:36.700Z,61.89
2022-09-21T10:29:48.743Z,62.13
2022-09-21T10:32:05.089Z,62.36
2022-09-21T10:34:14.047Z,62.79
2022-09-21T10:36:30.260Z,63.53
2022-09-21T10:38:32.465Z,64.09
2022-09-21T10:40:37.641Z,63.14
2022-09-21T10:42:42.556Z,63.97
2022-09-21T10:44:47.128Z,63.95
2022-09-21T10:46:49.602Z,64.11
2022-09-21T10:48:51.704Z,63.35
2022-09-21T10:50:54.522Z,63.68
2022-09-21T10:53:10.061Z,63.43
2022-09-21T10:55:20.988Z,63.29
2022-09-21T10:57:24.575Z,62.71
2022-09-21T10:59:29.784Z,62.00
2022-09-21T11:01:31.801Z,61.90
2022-09-21T11:03:51.544Z,58.48
2022-09-21T11:05:53.508Z,58.89
2022-09-21T11:08:00.227Z,56.59
2022-09-21T11:10:34.265Z,52.02
2022-09-21T11:13:14.772Z,49.93
2022-09-21T11:15:37.691Z,50.77
2022-09-21T11:17:50.487Z,49.42
2022-09-21T11:20:19.512Z,47.69
2022-09-21T11:22:41.011Z,46.74
2022-09-21T11:25:18.787Z,45.65
2022-09-21T11:27:39.853Z,44.24
2022-09-21T11:29:57.182Z,42.48
2022-09-21T11:32:20.653Z,44.83
2022-09-21T11:34:59.639Z,42.59
2022-09-21T11:37:33.139Z,43.88
2022-09-21T11:39:51.059Z,44.39
2022-09-21T11:43:00.027Z,44.65
2022-09-21T11:45:02.903Z,47.80
2022-09-21T11:47:36.547Z,47.49
2022-09-21T11:50:29.887Z,49.66
2022-09-21T11:52:54.243Z,49.52
2022-09-21T11:55:28.654Z,50.41
2022-09-21T11:58:04.164Z,51.06
2022-09-21T12:00:22.456Z,50.29
2022-09-21T12:02:42.987Z,52.06
2022-09-21T12:05:02.245Z,50.61
2022-09-21T12:07:17.249Z,48.15
2022-09-21T12:10:01.959Z,45.54
2022-09-21T12:12:18.242Z,44.35
2022-09-21T12:15:22.864Z,42.94
2022-09-21T12:17:54.118Z,41.15
2022-09-21T12:20:30.155Z,41.87
2022-09-21T12:22:35.722Z,43.18
2022-09-21T12:24:46.780Z,42.36
2022-09-21T12:26:52.528Z,43.14
2022-09-21T12:29:01.407Z,43.87
2022-09-21T12:31:51.449Z,44.34
2022-09-21T12:33:59.208Z,45.34
2022-09-21T12:36:19.110Z,45.20
2022-09-21T12:38:36.560Z,44.06
2022-09-21T12:40:57.814Z,43.61
2022-09-21T12:43:32.566Z,43.05
2022-09-21T12:45:48.476Z,43.50
2022-09-21T12:47:58.158Z,43.67
2022-09-21T12:50:06.575Z,44.29
2022-09-21T12:52:08.754Z,44.46
2022-09-21T12:54:56.982Z,43.51
2022-09-21T12:57:38.310Z,43.21
2022-09-21T13:00:04.238Z,42.32
2022-09-21T13:02:33.428Z,40.65
2022-09-21T13:05:28.040Z,40.46
2022-09-21T13:07:57.514Z,40.50
2022-09-21T13:10:12.228Z,40.50
2022-09-21T13:12:14.420Z,41.54
2022-09-21T13:14:16.374Z,41.26
2022-09-21T13:16:31.663Z,41.21
2022-09-21T13:18:40.505Z,42.18
2022-09-21T13:20:42.485Z,43.46
2022-09-21T13:22:44.520Z,43.46
2022-09-21T13:25:14.984Z,43.70
2022-09-21T13:27:16.911Z,44.09
2022-09-21T13:29:22.197Z,43.75
2022-09-21T13:32:20.256Z,44.67
2022-09-21T13:34:28.430Z,44.68
2022-09-21T13:36:36.218Z,43.95
2022-09-21T13:38:41.235Z,42.56
2022-09-21T13:40:50.380Z,41.35
2022-09-21T13:42:52.996Z,40.32
2022-09-21T13:44:55.010Z,39.63
2022-09-21T13:46:57.024Z,37.88
2022-09-21T13:48:59.790Z,39.15
2022-09-21T13:51:06.180Z,37.66
2022-09-21T13:53:23.992Z,37.27
2022-09-21T13:55:32.724Z,37.09
2022-09-21T13:57:46.134Z,37.13
2022-09-21T13:59:57.357Z,37.68
2022-09-21T14:01:59.498Z,39.56
2022-09-21T14:04:04.849Z,39.80
2022-09-21T14:06:27.130Z,39.68
2022-09-21T14:08:37.609Z,39.95
2022-09-21T14:10:39.583Z,40.75
2022-09-21T14:12:44.670Z,40.81
2022-09-21T14:15:18.666Z,40.43
2022-09-21T14:17:37.623Z,39.18
2022-09-21T14:19:39.430Z,38.70
2022-09-21T14:22:02.100Z,37.50
2022-09-21T14:24:07.740Z,36.29
2022-09-21T14:26:40.441Z,34.95
2022-09-21T14:28:47.396Z,34.42
2022-09-21T14:31:00.527Z,33.17
2022-09-21T14:33:26.381Z,32.16
2022-09-21T14:35:37.771Z,31.40
2022-09-21T14:37:49.008Z,31.60
2022-09-21T14:39:51.029Z,31.40
2022-09-21T14:41:55.486Z,30.66
2022-09-21T14:43:58.604Z,29.74
2022-09-21T14:46:17.140Z,29.83
2022-09-21T14:48:37.505Z,32.04
2022-09-21T14:51:04.613Z,31.89
2022-09-21T14:53:29.403Z,32.96
2022-09-21T14:56:02.124Z,33.25
2022-09-21T14:58:44.804Z,33.17
2022-09-21T15:00:50.321Z,34.14
2022-09-21T15:03:35.816Z,33.87
2022-09-21T15:05:40.636Z,33.87
2022-09-21T15:08:28.869Z,34.10
2022-09-21T15:10:56.511Z,34.06
2022-09-21T15:13:45.252Z,34.25
2022-09-21T15:16:45.763Z,33.52
2022-09-21T15:18:51.391Z,33.98
2022-09-21T15:21:02.406Z,34.10
2022-09-21T15:23:18.993Z,34.53
2022-09-21T15:25:20.995Z,35.03
2022-09-21T15:27:33.487Z,34.32
2022-09-21T15:29:35.843Z,34.47
2022-09-21T15:31:41.429Z,34.97
2022-09-21T15:33:47.771Z,35.88
2022-09-21T15:35:49.718Z,35.84
2022-09-21T15:37:52.047Z,36.15
2022-09-21T15:40:02.090Z,36.39
2022-09-21T15:42:10.032Z,36.62
2022-09-21T15:44:23.756Z,37.28
2022-09-21T15:46:25.750Z,37.94
2022-09-21T15:48:42.498Z,37.69
2022-09-21T15:50:45.090Z,38.57
2022-09-21T15:53:21.864Z,39.22
2022-09-21T15:55:24.043Z,39.33
2022-09-21T15:57:41.392Z,39.55
2022-09-21T15:59:44.575Z,39.42
2022-09-21T16:01:52.883Z,39.41
2022-09-21T16:04:06.330Z,39.28
2022-09-21T16:06:21.665Z,39.55
2022-09-21T16:08:37.384Z,40.10
2022-09-21T16:10:40.311Z,39.69
2022-09-21T16:12:45.620Z,39.85
2022-09-21T16:14:59.645Z,40.17
2022-09-21T16:17:13.630Z,40.64
2022-09-21T16:19:15.602Z,40.29
2022-09-21T16:21:34.735Z,41.61
2022-09-21T16:23:39.485Z,42.09
2022-09-21T16:25:43.051Z,42.96
2022-09-21T16:28:17.945Z,43.86
2022-09-21T16:30:56.146Z,44.30
2022-09-21T16:32:58.103Z,44.11
2022-09-21T16:35:29.306Z,45.00
2022-09-21T16:37:31.725Z,44.75
2022-09-21T16:39:34.803Z,45.21
2022-09-21T16:41:55.113Z,45.39
2022-09-21T16:43:57.371Z,45.45
2022-09-21T16:45:59.653Z,45.85
2022-09-21T16:48:05.214Z,46.06
2022-09-21T16:50:08.128Z,46.46
2022-09-21T16:52:10.102Z,47.42
2022-09-21T16:54:12.342Z,46.38
2022-09-21T16:56:15.380Z,47.20
2022-09-21T16:58:20.562Z,47.50
2022-09-21T17:00:22.607Z,47.47
2022-09-21T17:02:24.780Z,46.96
2022-09-21T17:04:29.693Z,47.90
2022-09-21T17:06:31.689Z,47.55
2022-09-21T17:08:33.698Z,47.68
2022-09-21T17:10:39.964Z,48.79
2022-09-21T17:12:41.933Z,48.97
2022-09-21T17:14:46.945Z,48.20
2022-09-21T17:16:54.932Z,49.60
2022-09-21T17:18:56.908Z,48.74
2022-09-21T17:20:59.258Z,49.29
2022-09-21T17:23:04.337Z,49.25
2022-09-21T17:25:07.124Z,50.11
2022-09-21T17:27:09.514Z,50.74
2022-09-21T17:29:30.947Z,50.70
2022-09-21T17:31:33.055Z,50.40
2022-09-21T17:33:35.090Z,49.54
2022-09-21T17:35:39.863Z,50.73
2022-09-21T17:37:41.818Z,50.94
2022-09-21T17:39:46.616Z,51.18
2022-09-21T17:42:02.452Z,52.10
2022-09-21T17:44:36.545Z,51.91
2022-09-21T17:47:12.717Z,52.63
2022-09-21T17:49:15.164Z,52.13
2022-09-21T17:51:37.400Z,50.97
2022-09-21T17:53:41.148Z,51.98
2022-09-21T17:55:58.700Z,53.67
2022-09-21T17:58:28.996Z,54.32
2022-09-21T18:00:47.070Z,54.96
2022-09-21T18:02:49.712Z,54.08
2022-09-21T18:04:57.022Z,55.45
2022-09-21T18:06:59.434Z,55.19
2022-09-21T18:09:02.045Z,55.13
2022-09-21T18:11:19.959Z,55.70
2022-09-21T18:14:05.652Z,56.27
2022-09-21T18:16:27.135Z,56.76
2022-09-21T18:18:36.964Z,57.26
2022-09-21T18:20:57.843Z,57.37
2022-09-21T18:23:19.667Z,57.61
2022-09-21T18:25:47.833Z,58.33
2022-09-21T18:27:50.717Z,57.38
2022-09-21T18:29:52.887Z,59.28
2022-09-21T18:32:00.701Z,58.95
2022-09-21T18:34:31.027Z,59.94
2022-09-21T18:36:41.098Z,59.56
2022-09-21T18:39:29.810Z,60.39
2022-09-21T18:41:45.869Z,59.93
2022-09-21T18:44:13.194Z,61.22
2022-09-21T18:46:29.169Z,61.33
2022-09-21T18:48:54.421Z,61.40
2022-09-21T18:51:29.360Z,62.23
2022-09-21T18:53:47.564Z,62.81
2022-09-21T18:55:50.279Z,61.28
2022-09-21T18:57:52.791Z,63.63
2022-09-21T18:59:55.611Z,63.01
2022-09-21T19:01:59.296Z,62.01
2022-09-21T19:04:01.938Z,62.96
2022-09-21T19:06:29.676Z,64.02
2022-09-21T19:08:43.814Z,63.71
2022-09-21T19:11:41.051Z,65.21
2022-09-21T19:14:28.025Z,65.32
2022-09-21T19:16:37.977Z,64.49
2022-09-21T19:19:04.000Z,65.69
2022-09-21T19:22:08.863Z,65.77
2022-09-21T19:24:31.767Z,67.04
2022-09-21T19:27:12.244Z,67.61
2022-09-21T19:29:48.733Z,67.15
2022-09-21T19:31:50.870Z,66.21
2022-09-21T19:33:52.939Z,64.71
2022-09-21T19:35:55.078Z,67.82
2022-09-21T19:38:02.112Z,66.82
2022-09-21T19:40:05.139Z,65.92
2022-09-21T19:42:32.159Z,68.24
2022-09-21T19:44:46.992Z,66.38
2022-09-21T19:47:06.603Z,68.75
2022-09-21T19:49:18.512Z,68.67
2022-09-21T19:51:40.341Z,68.56
2022-09-21T19:54:00.957Z,68.03
2022-09-21T19:56:21.756Z,68.96
2022-09-21T19:58:42.865Z,69.36
2022-09-21T20:00:45.687Z,68.29
2022-09-21T20:03:05.843Z,71.16
2022-09-21T20:05:23.458Z,71.43
2022-09-21T20:08:00.032Z,71.22
2022-09-21T20:10:11.981Z,71.18
2022-09-21T20:12:22.922Z,70.91
2022-09-21T20:14:42.420Z,70.96
2022-09-21T20:17:00.889Z,71.31
2022-09-21T20:19:20.999Z,71.72
2022-09-21T20:21:23.184Z,70.15
2022-09-21T20:23:25.381Z,70.94
2022-09-21T20:26:03.440Z,72.80
2022-09-21T20:28:06.995Z,69.79
2022-09-21T20:30:15.698Z,72.67
2022-09-21T20:32:18.050Z,71.95
2022-09-21T20:34:20.563Z,70.68
2022-09-21T20:36:22.926Z,71.28
2022-09-21T20:38:24.956Z,71.09
2022-09-21T20:40:28.840Z,72.92
2022-09-21T20:42:30.990Z,72.11
2022-09-21T20:44:33.066Z,72.10
2022-09-21T20:46:35.018Z,72.38
2022-09-21T20:48:37.735Z,72.31
2022-09-21T20:50:44.606Z,72.78
2022-09-21T20:52:46.676Z,72.33
2022-09-21T20:54:49.713Z,73.47
2022-09-21T20:56:51.765Z,72.83
2022-09-21T20:58:53.723Z,72.76
2022-09-21T21:00:59.022Z,72.49
2022-09-21T21:03:01.283Z,74.62
2022-09-21T21:05:04.676Z,73.61
2022-09-21T21:07:06.960Z,73.97
2022-09-21T21:09:08.901Z,73.87
2022-09-21T21:11:11.211Z,74.00
2022-09-21T21:13:13.278Z,74.91
2022-09-21T21:15:15.303Z,73.82
2022-09-21T21:17:17.303Z,75.03
2022-09-21T21:19:19.568Z,73.62
2022-09-21T21:21:21.584Z,75.08
2022-09-21T21:23:23.549Z,75.35
2022-09-21T21:25:25.525Z,75.49
2022-09-21T21:27:28.081Z,76.20
2022-09-21T21:29:31.157Z,74.83
2022-09-21T21:31:33.161Z,75.36
2022-09-21T21:33:35.316Z,77.31
2022-09-21T21:35:37.539Z,76.32
2022-09-21T21:37:40.433Z,76.38
2022-09-21T21:39:42.466Z,75.61
2022-09-21T21:41:44.444Z,77.05
2022-09-21T21:43:46.401Z,77.62
2022-09-21T21:45:57.715Z,78.45
2022-09-21T21:48:03.640Z,76.98
2022-09-21T21:50:06.050Z,77.64
2022-09-21T21:52:08.424Z,77.39
2022-09-21T21:54:11.023Z,77.80
2022-09-21T21:56:15.128Z,78.97
2022-09-21T21:58:17.119Z,77.70
2022-09-21T22:00:19.618Z,78.94
2022-09-21T22:02:21.634Z,79.67
2022-09-21T22:04:27.690Z,78.54
2022-09-21T22:06:31.048Z,78.98
2022-09-21T22:08:33.338Z,79.80
2022-09-21T22:10:35.288Z,78.76
2022-09-21T22:12:37.221Z,78.54
2022-09-21T22:14:39.702Z,80.20
2022-09-21T22:16:41.704Z,78.07
2022-09-21T22:18:44.113Z,80.20
2022-09-21T22:20:46.123Z,79.53
2022-09-21T22:22:48.583Z,79.40
2022-09-21T22:24:50.532Z,80.54
2022-09-21T22:26:52.505Z,80.72
2022-09-21T22:28:57.067Z,80.49
2022-09-21T22:31:00.313Z,80.79
2022-09-21T22:33:02.398Z,79.68
2022-09-21T22:35:05.188Z,80.78
2022-09-21T22:37:07.122Z,82.93
2022-09-21T22:39:09.151Z,81.06
2022-09-21T22:41:17.345Z,81.43
2022-09-21T22:43:19.312Z,81.64
2022-09-21T22:45:21.261Z,79.74
2022-09-21T22:47:23.240Z,80.26
2022-09-21T22:49:25.224Z,80.51
2022-09-21T22:51:27.910Z,81.19
2022-09-21T22:53:29.971Z,81.93
2022-09-21T22:55:31.977Z,81.93
2022-09-21T22:57:33.945Z,81.86
2022-09-21T22:59:35.935Z,81.47
2022-09-21T23:01:39.567Z,81.45
2022-09-21T23:03:42.064Z,80.84
2022-09-21T23:05:44.093Z,81.78
2022-09-21T23:07:50.803Z,82.55
2022-09-21T23:09:52.815Z,81.18
2022-09-21T23:11:54.965Z,82.16
2022-09-21T23:13:57.726Z,81.86
2022-09-21T23:16:07.439Z,84.08
2022-09-21T23:18:09.581Z,82.41
2022-09-21T23:20:11.759Z,81.79
2022-09-21T23:22:13.706Z,80.83
2022-09-21T23:24:15.671Z,82.43
2022-09-21T23:26:20.150Z,82.45
2022-09-21T23:28:22.163Z,82.64
2022-09-21T23:30:24.123Z,82.24
2022-09-21T23:32:26.345Z,82.89
2022-09-21T23:34:28.269Z,83.07
2022-09-21T23:36:31.194Z,83.26
2022-09-21T23:38:33.270Z,83.66
2022-09-21T23:40:35.284Z,84.07
2022-09-21T23:42:37.495Z,82.79
2022-09-21T23:44:39.472Z,82.71
2022-09-21T23:46:41.808Z,83.31
2022-09-21T23:48:43.943Z,81.95
2022-09-21T23:50:45.884Z,83.48
2022-09-21T23:52:47.857Z,83.72
2022-09-21T23:54:49.870Z,84.48
2022-09-21T23:56:51.802Z,83.58
2022-09-21T23:58:53.766Z,83.59
